Terminal Aerodrome Forecast
Issued by NWS

Home | Current Version | Previous Version | Text Only | Print | Product List | Glossary On
Versions: 1 2 3 4 5 6 7 8 9 10 11 12 13 14 15 16
000
FTUS43 KOAX 201100
TAFCDR
TAF
KCDR 201127Z 2012/2112 VRB05KT P6SM VCSH BKN100
     FM201600 27009KT P6SM SCT100
     FM202000 28011KT P6SM VCTS SCT060CB BKN090
     FM210200 VRB03KT P6SM BKN150=

USA.gov is the U.S. government's official web portal to all federal, state and local government web resources and services.